Time;durP1;ratioP1;P1;durP2;ratioP2;P2;SDS_P1;SDS_P2;PMS_P1;PMS_P2;Temp;Humidity;BMP_temperature;BMP_pressure;BME280_temperature;BME280_humidity;BME280_pressure;Samples;Min_cycle;Max_cycle;Signal;HPM_P1;HPM_P2
2022/07/29 00:01:43;;;;;;;5.15;2.33;;;;;;;24.15;46.35;99854.59;4362022;32;34444;-85
2022/07/29 00:04:11;;;;;;;3.05;2.33;;;;;;;24.30;45.92;99849.50;4363350;32;33998;-86
2022/07/29 00:06:40;;;;;;;3.62;2.65;;;;;;;24.17;46.50;99849.06;4363575;32;33397;-86
2022/07/29 00:09:09;;;;;;;3.83;2.95;;;;;;;24.43;45.81;99852.72;4345261;32;34713;-86
2022/07/29 00:11:38;;;;;;;4.82;2.65;;;;;;;24.16;46.55;99850.03;4358886;32;34010;-86
2022/07/29 00:14:08;;;;;;;3.45;2.83;;;;;;;24.14;46.48;99857.44;4350101;32;33133;-85
2022/07/29 00:16:37;;;;;;;3.15;2.50;;;;;;;23.92;47.16;99858.72;4374909;32;33383;-84
2022/07/29 00:19:05;;;;;;;3.92;3.08;;;;;;;24.04;46.60;99856.66;4362811;32;33851;-85
2022/07/29 00:21:34;;;;;;;3.80;2.80;;;;;;;23.80;47.09;99859.94;4345598;32;32986;-85
2022/07/29 00:24:02;;;;;;;6.55;3.20;;;;;;;24.12;46.47;99854.03;4374876;32;33569;-85
2022/07/29 00:26:32;;;;;;;5.12;2.53;;;;;;;24.07;46.98;99857.22;4361276;32;32012;-86
2022/07/29 00:29:01;;;;;;;6.45;2.67;;;;;;;24.18;45.73;99854.31;4351126;32;33091;-86
2022/07/29 00:31:49;;;;;;;5.18;2.65;;;;;;;24.26;45.62;99854.38;4363208;32;33280;-86
2022/07/29 00:37:04;;;;;;;3.42;2.70;;;;;;;24.41;44.65;99856.59;4365961;32;32724;-86
2022/07/29 00:39:34;;;;;;;5.80;3.30;;;;;;;24.65;44.13;99862.19;4344355;32;33656;-85
2022/07/29 00:42:04;;;;;;;4.80;3.17;;;;;;;24.87;43.20;99855.44;4337678;32;33414;-85
2022/07/29 00:44:37;;;;;;;5.70;3.10;;;;;;;24.83;43.48;99855.91;4352113;32;34788;-85
2022/07/29 00:47:05;;;;;;;4.32;2.92;;;;;;;25.09;42.43;99853.25;4350969;32;33612;-85
2022/07/29 00:49:35;;;;;;;4.03;3.33;;;;;;;25.19;42.10;99852.12;4374356;32;34540;-85
2022/07/29 00:52:04;;;;;;;3.53;2.87;;;;;;;25.20;42.39;99851.13;4349135;32;33281;-85
2022/07/29 00:54:33;;;;;;;3.42;3.12;;;;;;;25.55;41.25;99843.91;4362687;32;32897;-85
2022/07/29 00:57:06;;;;;;;7.85;3.42;;;;;;;25.56;41.27;99844.75;4374085;32;33400;-85
2022/07/29 00:59:35;;;;;;;6.07;3.62;;;;;;;25.53;41.30;99845.91;4364116;32;34178;-85
2022/07/29 01:02:03;;;;;;;5.03;3.05;;;;;;;25.47;41.59;99847.41;4364460;32;33002;-85
2022/07/29 01:04:31;;;;;;;6.25;3.17;;;;;;;25.62;41.22;99849.50;4360977;32;34524;-85
2022/07/29 01:07:01;;;;;;;3.65;3.22;;;;;;;25.58;41.01;99843.56;4352338;32;32345;-85
2022/07/29 01:09:31;;;;;;;3.62;3.22;;;;;;;25.72;40.67;99845.62;4364439;32;33826;-85
2022/07/29 01:12:15;;;;;;;4.05;3.25;;;;;;;25.66;40.87;99835.47;4364307;32;33738;-85
2022/07/29 01:14:43;;;;;;;3.53;3.22;;;;;;;25.61;41.04;99837.84;4364553;32;32938;-85
2022/07/29 01:17:14;;;;;;;3.08;2.87;;;;;;;25.73;40.86;99841.06;4372843;32;33089;-85
2022/07/29 01:19:51;;;;;;;3.78;2.92;;;;;;;26.04;40.09;99841.37;4362712;32;34563;-85
2022/07/29 01:22:25;;;;;;;5.55;3.17;;;;;;;25.70;40.70;99836.00;4375009;32;34293;-85
2022/07/29 01:25:03;;;;;;;5.82;3.40;;;;;;;25.86;40.34;99841.50;4359985;32;32460;-85
2022/07/29 01:28:09;;;;;;;6.43;3.22;;;;;;;26.01;40.19;99839.84;4372074;32;33467;-86
2022/07/29 01:30:42;;;;;;;5.22;3.10;;;;;;;25.94;40.12;99836.13;4377287;32;33809;-86
2022/07/29 01:33:48;;;;;;;2.80;2.58;;;;;;;26.07;40.02;99832.94;4364578;32;33181;-86
2022/07/29 01:36:06;;;;;;;4.03;3.17;;;;;;;26.01;40.15;99839.00;4353486;32;33776;-85
2022/07/29 01:38:35;;;;;;;6.95;3.50;;;;;;;25.90;40.56;99836.59;4362005;32;32683;-85
2022/07/29 01:41:10;;;;;;;3.60;2.90;;;;;;;25.86;40.53;99829.81;4374962;32;33155;-84
2022/07/29 01:43:52;;;;;;;3.85;3.47;;;;;;;25.98;40.00;99834.78;4336363;32;32570;-83
2022/07/29 01:46:33;;;;;;;7.25;3.33;;;;;;;25.97;40.38;99834.91;4350415;32;33062;-84
2022/07/29 01:49:14;;;;;;;5.78;3.80;;;;;;;25.91;40.11;99827.47;4372581;32;32328;-85
2022/07/29 01:52:03;;;;;;;5.37;3.33;;;;;;;26.04;39.96;99841.37;4337710;32;34525;-85
2022/07/29 01:54:38;;;;;;;2.95;2.72;;;;;;;25.87;40.24;99829.66;4350221;32;34279;-85
2022/07/29 01:57:08;;;;;;;3.47;2.72;;;;;;;25.94;40.23;99832.56;4352033;32;33516;-85
2022/07/29 01:59:37;;;;;;;3.78;3.05;;;;;;;25.93;40.24;99829.00;4346426;32;33104;-85
2022/07/29 02:02:08;;;;;;;3.97;3.42;;;;;;;26.11;39.84;99828.03;4337485;32;33962;-85
2022/07/29 02:04:37;;;;;;;6.62;3.33;;;;;;;25.88;40.37;99823.25;4332474;32;32934;-86
2022/07/29 02:07:06;;;;;;;6.50;4.28;;;;;;;25.98;40.59;99826.66;4339754;32;33468;-84
2022/07/29 02:09:35;;;;;;;3.45;3.10;;;;;;;25.64;41.13;99834.81;4341405;32;32758;-84
2022/07/29 02:12:04;;;;;;;5.12;2.90;;;;;;;25.69;41.20;99824.34;4355263;32;33204;-84
2022/07/29 02:14:36;;;;;;;5.18;3.58;;;;;;;25.84;40.88;99826.47;4342210;32;34881;-84
2022/07/29 02:17:04;;;;;;;6.57;3.10;;;;;;;25.77;41.13;99831.66;4353803;32;33870;-84
2022/07/29 02:19:36;;;;;;;6.90;3.47;;;;;;;25.72;40.83;99828.56;4344141;32;34508;-84
2022/07/29 02:22:06;;;;;;;5.40;3.83;;;;;;;25.90;40.37;99823.09;4357152;32;33600;-84
2022/07/29 02:24:36;;;;;;;3.90;3.50;;;;;;;25.86;40.52;99822.56;4364258;32;32745;-84
2022/07/29 02:27:04;;;;;;;6.37;3.47;;;;;;;25.90;40.38;99826.63;4346611;32;33308;-83
2022/07/29 02:29:32;;;;;;;4.37;3.62;;;;;;;25.78;40.69;99815.28;4351415;32;33446;-83
2022/07/29 02:32:00;;;;;;;6.18;3.55;;;;;;;25.84;40.74;99815.63;4352775;32;34206;-84
2022/07/29 02:34:29;;;;;;;4.22;3.55;;;;;;;25.94;40.66;99819.03;4365991;32;33546;-85
2022/07/29 02:36:58;;;;;;;6.75;4.10;;;;;;;25.94;40.55;99824.44;4338687;32;33848;-85
2022/07/29 02:39:28;;;;;;;5.97;4.12;;;;;;;25.66;41.27;99821.97;4341100;32;33059;-85
2022/07/29 02:42:06;;;;;;;4.97;3.55;;;;;;;25.82;40.77;99812.22;4346240;32;32863;-85
2022/07/29 02:44:36;;;;;;;6.80;4.25;;;;;;;25.78;40.80;99809.87;4350149;32;33876;-85
2022/07/29 02:47:19;;;;;;;6.32;3.45;;;;;;;25.76;40.76;99808.34;4364551;32;32317;-84
2022/07/29 02:49:57;;;;;;;6.20;3.85;;;;;;;25.79;40.78;99813.41;4361352;32;33493;-84
2022/07/29 02:52:34;;;;;;;6.97;3.25;;;;;;;25.69;41.01;99813.53;4376217;32;33455;-84
2022/07/29 02:55:11;;;;;;;4.12;3.70;;;;;;;25.76;40.78;99811.88;4359345;32;33761;-84
2022/07/29 02:57:46;;;;;;;4.03;3.55;;;;;;;25.78;40.83;99807.16;4356782;32;32672;-84
2022/07/29 03:00:26;;;;;;;5.28;3.53;;;;;;;25.81;40.82;99813.25;4373743;32;33605;-83
2022/07/29 03:02:56;;;;;;;6.55;3.83;;;;;;;25.72;41.45;99813.19;4376135;32;34209;-85
2022/07/29 03:05:24;;;;;;;4.10;3.70;;;;;;;25.72;41.00;99818.59;4359143;32;32983;-85
2022/07/29 03:07:58;;;;;;;5.00;3.03;;;;;;;25.70;41.04;99814.38;4366400;32;34239;-85
2022/07/29 03:10:27;;;;;;;6.75;3.78;;;;;;;25.59;41.52;99818.22;4376505;32;33073;-85
2022/07/29 03:12:55;;;;;;;7.62;3.80;;;;;;;25.52;41.77;99814.47;4338202;32;33326;-85
2022/07/29 03:15:25;;;;;;;9.18;4.37;;;;;;;25.54;41.65;99820.53;4361567;32;36264;-85
2022/07/29 03:17:55;;;;;;;4.00;3.58;;;;;;;25.51;41.49;99819.03;4362238;32;33901;-85
2022/07/29 03:20:24;;;;;;;4.53;3.20;;;;;;;25.45;41.58;99816.16;4351088;32;33350;-85
2022/07/29 03:22:52;;;;;;;6.72;3.80;;;;;;;25.52;41.44;99818.00;4375621;32;34548;-85
2022/07/29 03:25:20;;;;;;;7.05;3.37;;;;;;;25.61;41.36;99818.06;4344248;32;32880;-85
2022/07/29 03:27:49;;;;;;;4.95;3.50;;;;;;;25.59;41.49;99820.94;4350105;32;32054;-85
2022/07/29 03:30:17;;;;;;;5.35;3.70;;;;;;;25.58;41.36;99818.37;4362931;32;33874;-85
2022/07/29 03:32:50;;;;;;;4.87;3.80;;;;;;;25.57;41.39;99824.78;4370991;32;33634;-85
2022/07/29 03:35:20;;;;;;;4.35;3.47;;;;;;;25.56;41.51;99818.53;4370548;32;33690;-85
2022/07/29 03:37:49;;;;;;;5.35;3.20;;;;;;;25.37;41.87;99818.81;4358260;32;33612;-85
2022/07/29 03:40:30;;;;;;;5.22;3.75;;;;;;;25.35;42.23;99820.81;4359142;32;33513;-85
2022/07/29 03:42:59;;;;;;;4.25;3.78;;;;;;;25.57;41.63;99822.94;4358249;32;33805;-85
2022/07/29 03:45:29;;;;;;;9.45;3.53;;;;;;;25.41;41.84;99820.19;4370469;32;33890;-85
2022/07/29 03:48:01;;;;;;;5.12;3.53;;;;;;;25.36;42.21;99830.63;4347897;32;33659;-85
2022/07/29 03:50:30;;;;;;;5.80;3.20;;;;;;;25.50;41.63;99819.19;4362858;32;33173;-85
2022/07/29 03:52:59;;;;;;;5.25;4.05;;;;;;;25.43;41.92;99820.84;4349791;32;33461;-85
2022/07/29 03:55:29;;;;;;;5.32;2.95;;;;;;;25.36;42.48;99817.97;4362079;32;34113;-86
2022/07/29 03:57:59;;;;;;;5.82;3.62;;;;;;;25.37;42.46;99818.81;4361894;32;33389;-85
2022/07/29 04:00:27;;;;;;;5.35;3.55;;;;;;;25.37;42.50;99824.22;4379597;32;33442;-85
2022/07/29 04:02:57;;;;;;;4.37;3.83;;;;;;;25.29;42.31;99828.53;4361647;32;34319;-85
2022/07/29 04:05:25;;;;;;;4.93;3.53;;;;;;;25.39;42.01;99827.59;4362622;32;33214;-85
2022/07/29 04:07:53;;;;;;;4.35;3.95;;;;;;;25.15;42.48;99826.44;4349365;32;35954;-85
2022/07/29 04:10:22;;;;;;;4.90;3.92;;;;;;;25.33;42.31;99828.22;4350667;32;32169;-85
2022/07/29 04:12:59;;;;;;;4.95;3.50;;;;;;;25.19;42.99;99826.97;4351676;32;34195;-85
2022/07/29 04:15:28;;;;;;;4.72;3.25;;;;;;;25.34;42.96;99824.53;4351257;32;32871;-85
2022/07/29 04:17:58;;;;;;;4.60;3.78;;;;;;;25.48;42.20;99834.72;4364073;32;33930;-85
2022/07/29 04:20:27;;;;;;;4.32;3.20;;;;;;;25.28;43.00;99837.66;4362534;32;33192;-84
2022/07/29 04:22:55;;;;;;;9.95;3.92;;;;;;;25.43;42.02;99834.37;4333182;32;32724;-85
2022/07/29 04:25:23;;;;;;;3.62;3.30;;;;;;;25.36;42.10;99834.16;4374727;32;33887;-84
2022/07/29 04:28:00;;;;;;;5.22;3.15;;;;;;;25.47;42.10;99833.03;4368367;32;33384;-84
2022/07/29 04:30:30;;;;;;;4.15;3.20;;;;;;;25.72;41.57;99828.56;4380641;32;33417;-84
2022/07/29 04:33:00;;;;;;;7.53;3.97;;;;;;;25.32;43.28;99837.34;4355765;32;34071;-84
2022/07/29 04:35:30;;;;;;;4.32;3.40;;;;;;;25.33;43.01;99833.63;4378899;32;34481;-83
2022/07/29 04:38:06;;;;;;;5.68;3.33;;;;;;;25.44;42.47;99841.47;4363256;32;35492;-85
2022/07/29 04:40:43;;;;;;;9.68;3.80;;;;;;;25.90;41.13;99825.78;4352847;32;32344;-85
2022/07/29 04:43:15;;;;;;;5.43;3.33;;;;;;;25.66;41.95;99827.38;4362082;32;33037;-85
2022/07/29 04:45:50;;;;;;;4.97;3.72;;;;;;;25.58;42.41;99837.28;4363861;32;34230;-86
2022/07/29 04:48:18;;;;;;;4.47;3.10;;;;;;;25.59;41.94;99833.56;4351825;32;33136;-85
2022/07/29 04:50:50;;;;;;;;;;;;;;;25.78;42.05;99828.81;4355074;32;32543;-85
2022/07/29 04:53:18;;;;;;;6.75;3.97;;;;;;;25.81;41.56;99829.47;4360483;32;34951;-85
2022/07/29 04:55:46;;;;;;;5.65;3.22;;;;;;;26.00;41.26;99831.91;4333070;32;33803;-85
2022/07/29 04:58:14;;;;;;;5.62;3.28;;;;;;;26.05;41.05;99821.41;4345645;32;33028;-87
2022/07/29 05:00:42;;;;;;;6.45;2.97;;;;;;;26.18;40.67;99824.50;4336145;32;31887;-85
2022/07/29 05:03:10;;;;;;;3.87;3.47;;;;;;;26.34;40.66;99834.47;4362037;32;32709;-86
2022/07/29 05:05:40;;;;;;;4.72;3.65;;;;;;;26.54;40.76;99829.66;4364674;32;34677;-85
2022/07/29 05:08:09;;;;;;;4.60;3.15;;;;;;;26.33;41.00;99834.66;4347439;32;31660;-85
2022/07/29 05:10:48;;;;;;;3.87;3.47;;;;;;;26.47;40.41;99834.03;4373460;32;32956;-85
2022/07/29 05:13:18;;;;;;;3.70;3.12;;;;;;;26.54;39.94;99837.78;4373310;32;34313;-86
2022/07/29 05:15:47;;;;;;;3.60;3.03;;;;;;;26.64;41.18;99840.31;4366815;32;33890;-85
2022/07/29 05:18:17;;;;;;;5.30;3.55;;;;;;;26.52;40.26;99831.66;4361374;32;32590;-85
2022/07/29 05:20:45;;;;;;;4.43;2.85;;;;;;;26.79;40.02;99835.91;4350056;32;32148;-85
2022/07/29 05:23:14;;;;;;;5.25;3.62;;;;;;;26.75;40.17;99838.09;4341876;32;32964;-86
2022/07/29 05:25:42;;;;;;;11.73;3.62;;;;;;;26.73;39.76;99833.84;4348130;32;34391;-86
2022/07/29 05:28:12;;;;;;;7.60;4.20;;;;;;;26.67;39.78;99832.66;4368109;32;34133;-84
2022/07/29 05:30:41;;;;;;;9.13;4.00;;;;;;;26.84;40.30;99832.69;4357772;32;32124;-84
2022/07/29 05:33:08;;;;;;;5.53;3.53;;;;;;;27.05;39.48;99836.50;4357807;32;33238;-84
2022/07/29 05:35:58;;;;;;;6.57;3.83;;;;;;;26.98;39.70;99838.25;4357949;32;32149;-83
2022/07/29 05:38:27;;;;;;;5.85;3.65;;;;;;;27.29;39.23;99823.97;4346270;32;32832;-85
2022/07/29 05:41:00;;;;;;;4.22;3.83;;;;;;;27.32;38.73;99831.75;4360428;32;32388;-84
2022/07/29 05:43:29;;;;;;;6.78;3.62;;;;;;;27.40;38.94;99833.59;4341423;32;33509;-85
2022/07/29 05:45:59;;;;;;;5.35;3.40;;;;;;;27.40;38.36;99836.31;4358370;32;34474;-85
2022/07/29 05:48:28;;;;;;;5.65;3.60;;;;;;;27.13;39.02;99841.13;4358337;32;33184;-85
2022/07/29 05:51:00;;;;;;;5.70;4.15;;;;;;;27.00;39.38;99843.47;4358787;32;32633;-85
2022/07/29 05:53:30;;;;;;;4.28;3.83;;;;;;;27.15;38.93;99844.50;4359806;32;34311;-85
2022/07/29 05:55:58;;;;;;;7.60;4.18;;;;;;;26.78;39.82;99847.75;4359029;32;34824;-85
2022/07/29 05:58:30;;;;;;;3.97;3.58;;;;;;;26.84;39.69;99843.50;4373110;32;33654;-84
2022/07/29 06:01:01;;;;;;;9.35;3.83;;;;;;;26.68;39.97;99842.50;4344089;32;32611;-84
2022/07/29 06:03:37;;;;;;;3.87;3.53;;;;;;;27.14;39.11;99853.66;4371047;32;33539;-85
2022/07/29 06:06:10;;;;;;;6.00;3.30;;;;;;;26.99;39.51;99849.91;4360141;32;33889;-84
2022/07/29 06:08:42;;;;;;;5.53;3.47;;;;;;;27.18;39.59;99848.72;4358620;32;34570;-85
2022/07/29 06:11:14;;;;;;;4.53;3.30;;;;;;;27.08;40.04;99850.75;4352419;32;32505;-84
2022/07/29 06:13:42;;;;;;;8.45;3.92;;;;;;;27.24;39.84;99848.87;4361810;32;32525;-85
2022/07/29 06:16:10;;;;;;;5.50;3.50;;;;;;;27.42;39.08;99850.53;4361159;32;33729;-85
2022/07/29 06:18:42;;;;;;;;;;;;;;;27.58;38.59;99845.03;4367596;32;34795;-84
2022/07/29 06:21:10;;;;;;;5.65;3.97;;;;;;;27.53;38.71;99844.72;4366582;32;33400;-84
2022/07/29 06:23:40;;;;;;;3.95;3.15;;;;;;;27.39;40.25;99854.44;4346098;32;32609;-85
2022/07/29 06:26:08;;;;;;;6.93;3.60;;;;;;;27.06;40.18;99859.03;4356764;32;34396;-86
2022/07/29 06:28:39;;;;;;;6.75;3.70;;;;;;;27.78;38.76;99846.34;4344967;32;33881;-85
2022/07/29 06:31:13;;;;;;;5.47;3.80;;;;;;;27.86;38.45;99860.88;4353662;32;33388;-84
2022/07/29 06:33:42;;;;;;;8.57;4.22;;;;;;;27.88;38.02;99851.56;4355080;32;32938;-84
2022/07/29 06:36:12;;;;;;;7.25;3.75;;;;;;;27.81;38.68;99851.41;4343703;32;33915;-83
2022/07/29 06:38:40;;;;;;;11.70;4.03;;;;;;;28.25;38.01;99858.16;4355510;32;33789;-84
2022/07/29 06:41:18;;;;;;;8.40;4.35;;;;;;;28.63;37.26;99861.81;4357276;32;32612;-84
2022/07/29 06:43:46;;;;;;;7.43;3.97;;;;;;;28.51;37.13;99858.66;4344315;32;32780;-84
2022/07/29 06:46:22;;;;;;;4.68;3.90;;;;;;;28.00;39.03;99866.41;4336963;32;32445;-84
2022/07/29 06:48:52;;;;;;;9.05;3.50;;;;;;;28.66;37.75;99866.84;4361947;32;32743;-85
2022/07/29 06:51:21;;;;;;;5.75;3.87;;;;;;;28.73;37.59;99861.56;4344135;32;31928;-85
2022/07/29 06:53:57;;;;;;;5.87;4.40;;;;;;;28.30;37.30;99859.28;4369666;32;34634;-85
2022/07/29 06:56:32;;;;;;;5.53;3.30;;;;;;;28.02;39.02;99871.69;4341550;32;32984;-85
2022/07/29 06:59:10;;;;;;;5.75;3.78;;;;;;;28.14;37.48;99859.38;4351979;32;32902;-88
2022/07/29 07:01:42;;;;;;;9.60;4.40;;;;;;;28.50;37.82;99870.56;4352239;32;32843;-89
2022/07/29 07:04:15;;;;;;;7.45;4.25;;;;;;;28.83;36.01;99857.53;4352547;32;32398;-88
2022/07/29 07:06:45;;;;;;;6.93;4.00;;;;;;;28.95;36.30;99859.84;4352241;32;33880;-88
2022/07/29 07:09:16;;;;;;;;;;;;;;;28.98;35.92;99859.47;4349364;32;33241;-85
2022/07/29 07:11:45;;;;;;;4.60;3.97;;;;;;;28.62;36.70;99857.38;4369677;32;33322;-85
2022/07/29 07:14:16;;;;;;;7.40;4.03;;;;;;;29.11;37.42;99853.41;4359828;32;33407;-85
2022/07/29 07:16:45;;;;;;;4.30;3.50;;;;;;;28.99;35.89;99856.56;4370462;32;34239;-84
2022/07/29 07:19:15;;;;;;;5.80;4.18;;;;;;;28.89;36.40;99855.97;4348144;32;32692;-84
2022/07/29 07:21:48;;;;;;;4.03;3.45;;;;;;;29.14;36.07;99856.59;4343920;32;32185;-84
2022/07/29 07:24:16;;;;;;;4.28;3.58;;;;;;;28.96;36.21;99856.09;4348772;32;33042;-84
2022/07/29 07:26:51;;;;;;;10.80;3.90;;;;;;;29.15;35.86;99852.88;4366775;32;34650;-84
2022/07/29 07:29:19;;;;;;;6.70;3.97;;;;;;;29.53;35.77;99863.63;4373744;32;34624;-85
2022/07/29 07:31:51;;;;;;;11.63;4.18;;;;;;;29.08;37.73;99854.63;4361899;32;33127;-84
2022/07/29 07:34:29;;;;;;;9.38;3.85;;;;;;;29.80;35.99;99854.81;4357588;32;34598;-84
2022/07/29 07:36:58;;;;;;;8.00;4.00;;;;;;;29.76;34.52;99845.34;4356230;32;34753;-87
2022/07/29 07:39:26;;;;;;;6.93;4.28;;;;;;;30.20;34.77;99847.19;4357495;32;32725;-87
2022/07/29 07:41:54;;;;;;;8.00;3.50;;;;;;;30.30;33.68;99842.25;4359239;32;33115;-88
2022/07/29 07:44:23;;;;;;;5.28;4.25;;;;;;;30.14;33.89;99842.47;4371300;32;33403;-88
2022/07/29 07:46:53;;;;;;;8.48;3.83;;;;;;;30.07;34.45;99845.09;4363807;32;35279;-88
2022/07/29 07:49:25;;;;;;;6.50;4.30;;;;;;;29.70;34.53;99840.69;4346513;32;32782;-88
2022/07/29 07:51:56;;;;;;;4.85;4.35;;;;;;;30.20;35.09;99841.72;4357132;32;33456;-88
2022/07/29 07:54:24;;;;;;;9.18;3.87;;;;;;;30.31;33.91;99840.37;4355733;32;34246;-88
2022/07/29 07:56:53;;;;;;;5.80;4.45;;;;;;;30.50;34.28;99844.31;4356216;32;34349;-88
2022/07/29 07:59:24;;;;;;;5.47;3.60;;;;;;;30.00;36.53;99844.19;4340310;32;33703;-87
2022/07/29 08:01:54;;;;;;;14.05;4.35;;;;;;;30.59;33.88;99837.72;4355791;32;33988;-88
2022/07/29 08:04:31;;;;;;;4.82;3.72;;;;;;;30.56;34.94;99838.94;4350798;32;35332;-87
2022/07/29 08:07:01;;;;;;;8.70;4.15;;;;;;;30.63;33.59;99836.28;4355512;32;33142;-87
2022/07/29 08:09:34;;;;;;;4.37;3.97;;;;;;;30.98;33.18;99842.66;4350409;32;34129;-88
2022/07/29 08:12:03;;;;;;;10.23;5.37;;;;;;;30.96;34.68;99833.87;4336413;32;32960;-88
2022/07/29 08:14:33;;;;;;;8.88;3.72;;;;;;;31.06;32.78;99828.91;4340667;32;34171;-88
2022/07/29 08:17:03;;;;;;;3.83;3.42;;;;;;;30.97;34.27;99835.53;4350706;32;33203;-88
2022/07/29 08:19:32;;;;;;;6.37;3.80;;;;;;;31.36;33.93;99839.59;4367341;32;33933;-88
2022/07/29 08:22:01;;;;;;;5.15;4.05;;;;;;;31.48;32.67;99831.72;4345290;32;32769;-88
2022/07/29 08:24:43;;;;;;;6.68;3.28;;;;;;;31.49;32.04;99833.37;4344469;32;33178;-87
2022/07/29 08:27:13;;;;;;;5.07;4.03;;;;;;;31.83;31.70;99827.91;4366717;32;33594;-88
2022/07/29 08:32:38;;;;;;;8.70;4.12;;;;;;;32.14;31.36;99823.78;4359615;32;33267;-87
2022/07/29 08:35:29;;;;;;;7.87;3.78;;;;;;;31.74;31.63;99826.34;4341976;32;32205;-87
2022/07/29 08:38:04;;;;;;;4.05;3.40;;;;;;;31.98;30.90;99826.91;4366853;32;34439;-88
2022/07/29 08:40:34;;;;;;;5.20;4.07;;;;;;;32.40;29.96;99824.94;4349711;32;32703;-87
2022/07/29 08:43:07;;;;;;;7.25;4.18;;;;;;;32.41;30.29;99818.41;4361213;32;34758;-88
2022/07/29 08:45:48;;;;;;;4.12;3.72;;;;;;;32.46;30.38;99821.34;4356885;32;34661;-88
2022/07/29 08:48:20;;;;;;;6.18;4.10;;;;;;;32.09;30.65;99818.09;4356782;32;32918;-88
2022/07/29 08:50:52;;;;;;;8.40;4.55;;;;;;;32.12;30.06;99818.53;4366054;32;33480;-87
2022/07/29 08:53:21;;;;;;;6.45;4.20;;;;;;;32.10;29.84;99809.72;4360596;32;33895;-88
2022/07/29 08:55:51;;;;;;;5.10;4.05;;;;;;;31.85;30.79;99823.06;4359005;32;32847;-87
2022/07/29 08:58:20;;;;;;;8.32;3.87;;;;;;;32.34;30.98;99804.72;4354047;32;32941;-87
2022/07/29 09:00:55;;;;;;;9.13;4.15;;;;;;;32.76;29.55;99808.97;4360139;32;33144;-88
2022/07/29 09:03:31;;;;;;;7.32;3.80;;;;;;;32.29;29.43;99808.06;4359129;32;32379;-88
2022/07/29 09:06:03;;;;;;;5.87;3.58;;;;;;;32.78;29.48;99809.59;4366869;32;33930;-88
2022/07/29 09:08:32;;;;;;;5.90;3.85;;;;;;;33.37;28.62;99810.56;4347561;32;32759;-87
2022/07/29 09:11:03;;;;;;;5.97;3.35;;;;;;;33.65;28.06;99802.06;4367169;32;34595;-87
2022/07/29 09:13:34;;;;;;;7.85;3.75;;;;;;;33.77;27.90;99807.72;4360021;32;33408;-87
2022/07/29 09:16:05;;;;;;;6.57;3.72;;;;;;;33.50;27.93;99806.97;4349038;32;33006;-88
2022/07/29 09:18:43;;;;;;;5.90;3.62;;;;;;;33.84;27.83;99803.03;4377881;32;34073;-88
2022/07/29 09:24:13;;;;;;;5.68;3.95;;;;;;;33.64;29.12;99794.91;4360938;32;36983;-88
2022/07/29 09:26:45;;;;;;;4.10;3.65;;;;;;;33.76;30.67;99798.66;4361055;32;33810;-88
2022/07/29 09:29:19;;;;;;;3.97;3.50;;;;;;;33.82;27.95;99797.78;4360485;32;34318;-88
2022/07/29 09:31:52;;;;;;;4.53;3.40;;;;;;;34.37;26.34;99789.91;4360754;32;34465;-88
2022/07/29 09:34:28;;;;;;;7.22;4.15;;;;;;;34.44;26.23;99789.00;4361014;32;33139;-88
2022/07/29 09:36:57;;;;;;;5.65;3.50;;;;;;;34.40;25.92;99789.44;4360790;32;34216;-88
2022/07/29 09:39:46;;;;;;;6.82;3.22;;;;;;;34.52;25.04;99786.03;4377927;32;33916;-87
2022/07/29 09:42:28;;;;;;;5.82;3.55;;;;;;;34.60;26.42;99785.72;4360739;32;34454;-88
2022/07/29 09:44:56;;;;;;;4.97;2.75;;;;;;;34.39;26.22;99784.19;4360727;32;33825;-88
2022/07/29 09:47:44;;;;;;;4.78;3.03;;;;;;;34.64;26.83;99778.72;4360713;32;33486;-88
2022/07/29 09:50:14;;;;;;;10.73;3.58;;;;;;;34.85;26.09;99778.34;4362146;32;34123;-88
2022/07/29 09:52:53;;;;;;;4.75;2.97;;;;;;;35.26;24.91;99776.88;4350493;32;33106;-88
2022/07/29 09:55:21;;;;;;;4.10;3.03;;;;;;;35.26;23.87;99773.28;4375283;32;34112;-88
2022/07/29 09:57:54;;;;;;;6.65;3.53;;;;;;;34.97;24.06;99772.97;4351162;32;32661;-88
2022/07/29 10:00:22;;;;;;;7.15;3.67;;;;;;;35.06;25.69;99762.53;4362473;32;33751;-88
2022/07/29 10:05:39;;;;;;;6.20;3.05;;;;;;;35.22;25.37;99753.69;4363982;32;33083;-88
2022/07/29 10:08:14;;;;;;;7.62;3.67;;;;;;;35.24;26.17;99759.81;4362596;32;34570;-88
2022/07/29 10:10:42;;;;;;;2.90;2.60;;;;;;;35.74;24.38;99762.34;4373399;32;33819;-88
2022/07/29 10:13:14;;;;;;;7.03;2.60;;;;;;;35.90;23.18;99752.62;4350613;32;32979;-88
2022/07/29 10:15:45;;;;;;;4.22;2.40;;;;;;;35.66;22.07;99757.19;4374514;32;33143;-88
2022/07/29 10:18:19;;;;;;;2.83;2.50;;;;;;;35.55;22.51;99761.53;4374872;32;33076;-88
2022/07/29 10:20:51;;;;;;;5.28;2.75;;;;;;;35.85;22.26;99753.34;4349996;32;34102;-87
2022/07/29 10:23:21;;;;;;;2.97;2.70;;;;;;;35.65;24.26;99755.50;4374830;32;33704;-88
2022/07/29 10:25:49;;;;;;;3.42;2.40;;;;;;;35.87;24.13;99756.69;4376307;32;34091;-88
2022/07/29 10:28:19;;;;;;;6.22;2.87;;;;;;;35.48;21.88;99749.81;4374369;32;33601;-88
2022/07/29 10:30:53;;;;;;;6.78;3.08;;;;;;;35.87;23.00;99753.09;4374918;32;34795;-88
2022/07/29 10:33:41;;;;;;;5.20;2.50;;;;;;;36.03;23.25;99748.87;4375244;32;33412;-88
2022/07/29 10:36:24;;;;;;;4.35;2.95;;;;;;;35.83;23.92;99744.47;4363027;32;33257;-88
2022/07/29 10:39:19;;;;;;;5.40;3.15;;;;;;;36.35;22.54;99741.19;4375133;32;34612;-88
2022/07/29 10:42:13;;;;;;;5.20;3.05;;;;;;;35.90;22.40;99745.22;4351132;32;32948;-88
2022/07/29 10:44:48;;;;;;;5.70;2.53;;;;;;;35.97;22.43;99733.31;4362386;32;34517;-88
2022/07/29 10:47:26;;;;;;;5.00;3.05;;;;;;;36.40;22.44;99728.38;4374084;32;33069;-88
2022/07/29 10:50:03;;;;;;;4.50;2.90;;;;;;;36.47;23.38;99727.50;4368527;32;34320;-88
2022/07/29 10:58:24;;;;;;;2.53;2.33;;;;;;;37.05;22.04;99732.16;4345729;32;32474;-88
2022/07/29 11:01:01;;;;;;;3.75;2.67;;;;;;;36.08;23.65;99724.25;4361809;32;34502;-88
2022/07/29 11:03:51;;;;;;;3.22;2.92;;;;;;;36.39;21.56;99723.12;4373102;32;34705;-88
2022/07/29 11:06:21;;;;;;;4.32;2.75;;;;;;;36.24;21.52;99718.09;4367252;32;33989;-88
2022/07/29 11:09:19;;;;;;;5.03;2.65;;;;;;;36.34;22.22;99710.09;4366462;32;33456;-88
2022/07/29 11:12:03;;;;;;;3.72;2.75;;;;;;;36.38;21.80;99708.56;4351845;32;33119;-88
2022/07/29 11:14:54;;;;;;;3.92;2.42;;;;;;;36.91;21.66;99704.88;4346545;32;33704;-88
2022/07/29 11:17:24;;;;;;;2.75;2.42;;;;;;;37.80;20.60;99695.41;4354961;32;33498;-88
2022/07/29 11:20:40;;;;;;;3.08;2.67;;;;;;;36.87;20.65;99697.31;4374068;32;32734;-88
2022/07/29 11:23:30;;;;;;;3.95;2.70;;;;;;;36.54;21.97;99701.53;4374536;32;34226;-88
2022/07/29 11:26:16;;;;;;;6.80;2.78;;;;;;;35.75;22.29;99698.13;4375921;32;32736;-88
2022/07/29 11:28:51;;;;;;;2.70;2.50;;;;;;;36.03;22.17;99702.16;4364069;32;33440;-88
2022/07/29 11:31:32;;;;;;;6.28;2.55;;;;;;;36.20;22.66;99694.91;4376943;32;34038;-88
2022/07/29 11:34:40;;;;;;;8.75;3.22;;;;;;;36.55;21.16;99691.34;4377639;32;33843;-88
2022/07/29 11:37:14;;;;;;;5.03;2.80;;;;;;;36.37;21.74;99682.13;4376365;32;33759;-88
2022/07/29 11:39:54;;;;;;;4.68;2.55;;;;;;;36.96;22.48;99668.38;4364095;32;33636;-87
2022/07/29 11:42:35;;;;;;;6.43;2.87;;;;;;;37.13;21.39;99671.22;4376003;32;33154;-88
2022/07/29 11:45:20;;;;;;;2.80;2.53;;;;;;;37.20;21.00;99663.66;4375127;32;34637;-88
2022/07/29 11:48:16;;;;;;;3.62;2.25;;;;;;;37.81;20.16;99673.09;4371153;32;34465;-88
2022/07/29 11:51:11;;;;;;;4.97;2.60;;;;;;;37.25;20.11;99677.50;4365805;32;34464;-88
2022/07/29 11:53:40;;;;;;;10.38;3.28;;;;;;;36.61;21.32;99674.75;4372515;32;33199;-88
2022/07/29 11:59:06;;;;;;;3.00;2.70;;;;;;;35.89;22.62;99672.13;4366163;32;34570;-88
2022/07/29 12:01:55;;;;;;;4.85;2.62;;;;;;;35.66;21.93;99666.56;4371718;32;32339;-88
2022/07/29 12:04:56;;;;;;;4.25;2.90;;;;;;;35.54;22.89;99663.75;4370435;32;33872;-88
2022/07/29 12:10:07;;;;;;;4.15;2.72;;;;;;;35.97;22.52;99659.97;4364253;32;33891;-88
2022/07/29 12:12:52;;;;;;;3.33;2.72;;;;;;;36.18;25.19;99655.84;4369130;32;34229;-88
2022/07/29 12:15:28;;;;;;;2.85;2.55;;;;;;;36.20;21.76;99661.09;4357177;32;32561;-87
2022/07/29 12:18:14;;;;;;;2.67;2.45;;;;;;;36.47;22.83;99656.00;4377553;32;34577;-88
2022/07/29 12:21:03;;;;;;;3.72;2.65;;;;;;;37.07;20.35;99655.66;4368932;32;33722;-88
2022/07/29 12:23:33;;;;;;;4.00;2.30;;;;;;;37.25;20.18;99646.41;4363350;32;33794;-88
2022/07/29 12:26:05;;;;;;;3.35;2.60;;;;;;;37.17;22.23;99644.84;4358940;32;34051;-88